Time;durP1;ratioP1;P1;durP2;ratioP2;P2;SDS_P1;SDS_P2;PMS_P1;PMS_P2;Temp;Humidity;BMP_temperature;BMP_pressure;BME280_temperature;BME280_humidity;BME280_pressure;Samples;Min_cycle;Max_cycle;Signal;HPM_P1;HPM_P2
2022/07/16 00:03:04;;;;;;;1.30;0.80;;;15.90;1.00;;;15.94;61.57;101294.59;5006809;28;20491;-69
2022/07/16 00:05:34;;;;;;;2.40;0.60;;;15.80;1.00;;;15.97;61.53;101296.06;5012678;28;20461;-70
2022/07/16 00:08:03;;;;;;;2.27;0.87;;;15.90;1.00;;;15.98;61.50;101290.34;5011431;28;20444;-71
2022/07/16 00:10:32;;;;;;;1.27;0.83;;;15.90;1.00;;;15.93;61.82;101290.19;5010149;28;20400;-69
2022/07/16 00:13:03;;;;;;;1.47;0.90;;;15.80;1.00;;;15.91;61.95;101283.31;5011384;28;20433;-70
2022/07/16 00:15:34;;;;;;;1.40;0.93;;;15.80;1.00;;;15.88;62.20;101284.59;5012196;28;20453;-69
2022/07/16 00:20:50;;;;;;;1.90;0.90;;;15.90;1.00;;;15.93;62.10;101271.09;5014119;28;20467;-69
2022/07/16 00:23:19;;;;;;;1.60;0.90;;;15.80;1.00;;;15.93;62.31;101271.09;5013588;28;20467;-68
2022/07/16 00:25:48;;;;;;;1.83;1.00;;;15.80;1.00;;;15.95;62.17;101271.72;5011834;28;20453;-71
2022/07/16 00:28:17;;;;;;;4.17;1.10;;;15.90;1.00;;;15.90;62.57;101266.09;5011417;28;20500;-68
2022/07/16 00:30:48;;;;;;;1.20;0.80;;;15.80;1.00;;;15.99;62.20;101259.25;5011254;28;20437;-70
2022/07/16 00:33:16;;;;;;;1.13;0.90;;;15.80;1.00;;;16.00;62.17;101263.66;5011951;28;20433;-70
2022/07/16 00:35:46;;;;;;;1.83;1.00;;;15.90;1.00;;;15.97;62.55;101260.56;5012270;28;20454;-71
2022/07/16 00:38:15;;;;;;;2.80;1.00;;;15.90;1.00;;;16.01;62.34;101262.63;5011675;28;20448;-69
2022/07/16 00:40:44;;;;;;;3.70;1.07;;;15.90;99.90;;;15.94;62.57;101267.31;5010356;28;20872;-70
2022/07/16 00:43:14;;;;;;;1.67;0.90;;;15.80;99.90;;;15.93;62.87;101268.38;5011431;28;20459;-71
2022/07/16 00:45:45;;;;;;;1.43;1.10;;;15.80;99.90;;;16.03;62.34;101254.19;5007942;28;20969;-70
2022/07/16 00:48:16;;;;;;;1.40;0.90;;;15.90;1.00;;;15.87;62.93;101255.66;5011562;28;20532;-69
2022/07/16 00:50:45;;;;;;;3.10;0.87;;;15.80;1.00;;;15.99;62.79;101264.72;5011403;28;20415;-70
2022/07/16 00:53:15;;;;;;;1.60;1.10;;;15.80;1.00;;;15.86;63.21;101251.25;5012062;28;20937;-69
2022/07/16 00:55:44;;;;;;;3.63;0.87;;;15.80;59.00;;;15.96;62.81;101247.97;5011567;28;20453;-69
2022/07/16 00:58:13;;;;;;;3.77;1.00;;;15.80;59.00;;;15.95;62.66;101240.84;5012665;28;20430;-69
2022/07/16 01:00:42;;;;;;;4.00;1.07;;;15.80;58.90;;;15.79;63.16;101241.47;5011358;28;20433;-70
2022/07/16 01:03:12;;;;;;;1.47;0.90;;;15.70;59.90;;;15.89;63.12;101248.06;5011293;28;20411;-69
2022/07/16 01:05:42;;;;;;;1.73;1.03;;;15.70;61.20;;;15.76;63.40;101234.56;5005451;28;20540;-69
2022/07/16 01:08:12;;;;;;;1.53;1.10;;;15.70;62.90;;;15.77;63.46;101238.97;5005593;28;20403;-71
2022/07/16 01:10:42;;;;;;;1.30;0.80;;;15.70;65.00;;;15.81;63.41;101234.72;5011143;28;20432;-70
2022/07/16 01:13:13;;;;;;;1.00;0.70;;;15.70;65.60;;;15.72;63.61;101241.56;5011534;28;20468;-72
2022/07/16 01:15:43;;;;;;;1.47;1.00;;;15.60;66.60;;;15.71;63.96;101234.41;5007865;28;20449;-69
2022/07/16 01:18:12;;;;;;;1.73;0.80;;;15.60;69.90;;;15.76;63.64;101229.13;5014967;28;20444;-71
2022/07/16 01:20:43;;;;;;;2.13;1.47;;;15.60;68.90;;;15.63;64.06;101237.47;5014808;28;20408;-70
2022/07/16 01:23:19;;;;;;;1.93;1.00;;;15.50;71.70;;;15.66;63.95;101226.09;5014658;28;20418;-70
2022/07/16 01:25:48;;;;;;;3.63;1.10;;;15.50;72.90;;;15.66;64.15;101220.63;5010699;28;20448;-68
2022/07/16 01:28:18;;;;;;;1.73;0.97;;;15.50;74.00;;;15.59;64.42;101226.16;5014643;28;20757;-70
2022/07/16 01:30:48;;;;;;;1.57;0.80;;;15.50;76.40;;;15.59;64.29;101228.03;5014707;28;20518;-70
2022/07/16 01:33:23;;;;;;;2.70;0.97;;;15.50;76.80;;;15.58;64.56;101229.13;5014843;28;20924;-69
2022/07/16 01:35:56;;;;;;;2.90;1.23;;;15.40;80.30;;;15.55;64.60;101224.94;5015116;28;20896;-71
2022/07/16 01:38:27;;;;;;;1.40;0.80;;;15.40;80.00;;;15.38;65.06;101223.84;5014533;28;20396;-71
2022/07/16 01:40:57;;;;;;;2.43;0.83;;;15.30;82.20;;;15.39;65.20;101217.34;5011021;28;20456;-69
2022/07/16 01:43:28;;;;;;;7.60;1.07;;;15.30;83.80;;;15.16;65.80;101217.97;5013803;28;20812;-69
2022/07/16 01:45:59;;;;;;;2.23;0.70;;;15.20;87.00;;;15.18;65.83;101213.16;5014166;28;20505;-71
2022/07/16 01:48:30;;;;;;;1.40;0.70;;;15.20;89.70;;;15.05;66.21;101202.38;5014288;28;20433;-69
2022/07/16 01:51:00;;;;;;;1.30;1.10;;;15.10;91.50;;;15.07;66.40;101202.97;5014130;28;20483;-70
2022/07/16 01:56:50;;;;;;;2.67;1.37;;;15.00;93.30;;;14.99;66.63;101200.53;5011963;28;20434;-70
2022/07/16 02:00:09;;;;;;;1.50;0.73;;;15.00;94.00;;;14.97;66.79;101189.00;5011866;28;21030;-70
2022/07/16 02:02:39;;;;;;;3.47;0.90;;;15.00;95.00;;;15.10;66.49;101188.06;5012710;28;20445;-67
2022/07/16 02:17:08;;;;;;;2.60;1.13;;;15.30;92.10;;;15.29;65.43;101164.38;5009098;28;21185;-68
2022/07/16 08:51:07;;;;;;;2.20;1.00;;;18.50;1.00;;;18.36;56.48;101145.59;5034517;28;20389;-74
2022/07/16 08:53:40;;;;;;;1.43;1.00;;;18.20;1.00;;;19.23;55.57;101139.59;5040639;28;20889;-75
2022/07/16 08:56:09;;;;;;;3.37;1.43;;;18.70;1.00;;;19.96;53.33;101140.00;5040225;28;20420;-75
2022/07/16 08:58:39;;;;;;;1.43;1.23;;;19.20;1.00;;;19.72;52.65;101137.78;5019052;28;20793;-73
2022/07/16 09:01:08;;;;;;;1.77;1.17;;;19.40;1.00;;;19.28;53.43;101148.72;5038181;28;20418;-75
2022/07/16 09:03:37;;;;;;;1.93;1.20;;;19.10;1.00;;;19.22;53.33;101154.41;5034065;28;20431;-75
2022/07/16 09:06:09;;;;;;;1.40;0.97;;;19.10;1.00;;;19.03;54.44;101162.06;5030276;28;20428;-75
2022/07/16 09:08:38;;;;;;;1.93;1.00;;;18.80;1.00;;;18.41;54.94;101175.00;5018578;28;20436;-76
2022/07/16 09:11:22;;;;;;;1.40;0.87;;;18.40;1.00;;;18.84;54.78;101152.44;5027044;28;20399;-75
2022/07/16 09:14:04;;;;;;;2.23;1.20;;;18.60;1.00;;;18.83;53.76;101167.28;5015546;28;20446;-74
2022/07/16 09:16:36;;;;;;;2.70;1.40;;;18.70;1.00;;;19.24;53.75;101169.53;5025815;28;20416;-75
2022/07/16 14:55:02;;;;;;;2.60;0.90;;;20.90;1.00;;;21.53;33.87;101424.91;5035247;28;20804;-75
2022/07/16 14:57:32;;;;;;;1.50;0.73;;;21.20;1.00;;;21.44;33.65;101409.13;5033168;28;20943;-75
2022/07/16 19:12:14;;;;;;;4.73;1.40;;;18.80;1.00;;;18.78;42.47;101649.75;4999378;28;20469;-68
2022/07/16 19:14:43;;;;;;;2.60;1.00;;;18.60;1.00;;;18.70;42.61;101647.34;4991476;28;20539;-70
2022/07/16 19:17:13;;;;;;;1.60;1.07;;;18.60;1.00;;;18.55;43.04;101659.59;4996925;28;20448;-68
2022/07/16 19:19:42;;;;;;;2.53;0.77;;;18.50;1.00;;;18.56;43.20;101664.03;4988437;28;20484;-70
2022/07/16 19:22:12;;;;;;;3.10;1.37;;;18.40;1.00;;;18.50;43.35;101673.16;4994248;28;20430;-69
2022/07/16 19:24:41;;;;;;;3.20;1.53;;;18.40;1.00;;;18.44;43.50;101678.75;4993561;28;20428;-69
2022/07/16 19:27:12;;;;;;;3.13;1.27;;;18.30;1.00;;;18.35;43.88;101678.25;5003889;28;20469;-71
2022/07/16 19:29:41;;;;;;;2.10;1.00;;;18.20;1.00;;;18.28;44.11;101682.16;4997404;28;20922;-70
2022/07/16 19:32:10;;;;;;;8.80;1.10;;;18.20;1.00;;;18.20;44.32;101681.41;5006031;28;20432;-71
2022/07/16 19:34:39;;;;;;;2.90;1.03;;;18.10;1.00;;;18.23;44.57;101693.81;4995157;28;21010;-69
2022/07/16 19:37:09;;;;;;;1.60;1.00;;;18.10;1.00;;;18.16;44.85;101696.66;4996804;28;20480;-72
2022/07/16 19:39:38;;;;;;;1.83;1.10;;;18.00;1.00;;;18.06;45.07;101698.28;4997244;28;20429;-69
2022/07/16 19:42:08;;;;;;;2.20;1.53;;;17.90;1.00;;;17.95;45.37;101702.66;4997716;28;20419;-70
2022/07/16 19:44:38;;;;;;;1.30;0.70;;;17.90;1.00;;;17.88;45.56;101712.84;4993576;28;20465;-71
2022/07/16 19:47:08;;;;;;;2.23;1.10;;;17.80;1.00;;;17.76;46.03;101726.50;4999178;28;20416;-71
2022/07/16 19:49:39;;;;;;;2.67;1.10;;;17.70;1.00;;;17.73;45.98;101726.09;4995178;28;20460;-70
2022/07/16 19:52:08;;;;;;;1.70;0.83;;;17.60;1.00;;;17.72;46.13;101722.53;4996942;28;20926;-70
2022/07/16 19:54:37;;;;;;;3.13;1.50;;;17.60;1.00;;;17.65;46.42;101727.25;4990483;28;20472;-70
2022/07/16 19:59:54;;;;;;;2.13;0.90;;;17.50;1.00;;;17.56;46.62;101734.06;4996484;28;20796;-69
2022/07/16 20:02:23;;;;;;;3.67;1.77;;;17.50;1.00;;;17.56;46.60;101735.97;4984619;28;20972;-67
2022/07/16 20:04:58;;;;;;;2.37;0.73;;;17.40;1.00;;;17.52;46.65;101741.06;5001735;28;20968;-70
2022/07/16 20:07:27;;;;;;;2.47;1.03;;;17.40;1.00;;;17.39;47.07;101739.28;4997018;28;20413;-70
2022/07/16 20:09:56;;;;;;;3.53;1.07;;;17.30;1.00;;;17.39;46.90;101750.25;4994490;28;20488;-70
2022/07/16 20:12:26;;;;;;;1.67;1.00;;;17.30;1.00;;;17.30;47.25;101748.03;5000855;28;20506;-71
2022/07/16 20:14:57;;;;;;;5.83;1.43;;;17.20;1.00;;;17.23;47.46;101752.75;4998651;28;20443;-70
2022/07/16 20:17:26;;;;;;;2.53;1.03;;;17.20;1.00;;;17.28;47.35;101756.44;4999512;28;20524;-70
2022/07/16 20:19:55;;;;;;;3.10;1.10;;;17.10;1.00;;;17.22;47.63;101753.78;4993037;28;20946;-69
2022/07/16 20:22:24;;;;;;;3.53;1.17;;;17.10;1.00;;;17.19;47.70;101751.50;4996730;28;20492;-71
2022/07/16 20:24:54;;;;;;;2.37;1.00;;;17.10;1.00;;;17.20;47.61;101758.66;5000960;28;20454;-72
2022/07/16 20:27:23;;;;;;;4.23;1.97;;;17.00;1.00;;;17.08;48.05;101761.28;4997267;28;20419;-70
2022/07/16 20:29:56;;;;;;;4.60;1.20;;;17.00;1.00;;;17.03;48.14;101766.59;4993767;28;20414;-69
2022/07/16 20:32:25;;;;;;;4.10;1.60;;;16.90;1.00;;;16.98;48.28;101768.31;4993741;28;20442;-69
2022/07/16 20:34:55;;;;;;;4.77;1.73;;;16.90;1.00;;;17.04;47.95;101779.19;4999434;28;20508;-71
2022/07/16 20:37:24;;;;;;;5.67;2.30;;;16.90;1.00;;;16.89;48.58;101774.03;4996465;28;20438;-71
2022/07/16 20:39:53;;;;;;;1.67;1.00;;;16.90;1.00;;;16.79;48.98;101786.56;4995509;28;21081;-68
2022/07/16 20:42:23;;;;;;;2.13;1.37;;;16.70;1.00;;;16.59;49.66;101789.44;4993490;28;20895;-72
2022/07/16 20:44:53;;;;;;;1.90;1.10;;;16.60;1.00;;;16.63;49.65;101782.47;5001624;28;20948;-70
2022/07/16 20:47:25;;;;;;;4.33;1.60;;;16.60;1.00;;;16.53;49.97;101791.13;5004105;28;20437;-71
2022/07/16 20:49:55;;;;;;;2.90;1.10;;;16.50;1.00;;;16.70;49.73;101790.63;4986624;28;20438;-70
2022/07/16 20:52:25;;;;;;;3.90;1.13;;;16.50;1.00;;;16.63;49.86;101787.94;4995044;28;20412;-70
2022/07/16 20:54:54;;;;;;;2.70;1.00;;;16.50;1.00;;;16.61;50.14;101790.03;5008338;28;20844;-69
2022/07/16 20:57:23;;;;;;;3.97;1.77;;;16.50;1.00;;;16.53;50.04;101796.56;4993675;28;20430;-72
2022/07/16 20:59:52;;;;;;;4.30;1.13;;;16.40;1.00;;;16.49;50.37;101802.69;4985879;28;20568;-71
2022/07/16 21:02:21;;;;;;;4.30;1.43;;;16.40;1.00;;;16.39;50.68;101794.13;4994945;28;20409;-71
2022/07/16 21:04:51;;;;;;;2.50;1.57;;;16.30;1.00;;;16.33;50.81;101806.78;4998093;28;20478;-70
2022/07/16 21:07:20;;;;;;;3.77;1.43;;;16.30;1.00;;;16.28;50.97;101811.22;4992851;28;20431;-70
2022/07/16 21:09:50;;;;;;;2.80;1.10;;;16.20;1.00;;;16.32;50.95;101815.19;4995407;28;20513;-70
2022/07/16 21:12:22;;;;;;;1.97;0.97;;;16.20;1.00;;;16.31;50.93;101808.06;5000742;28;20487;-70
2022/07/16 21:14:51;;;;;;;3.17;1.17;;;16.20;1.00;;;16.23;51.18;101819.22;4996955;28;20812;-70
2022/07/16 21:17:21;;;;;;;4.70;1.20;;;16.20;1.00;;;16.26;51.29;101821.53;4998468;28;20399;-70
2022/07/16 21:19:53;;;;;;;2.13;1.37;;;16.10;1.00;;;16.18;51.16;101816.28;4988975;28;20515;-71
2022/07/16 21:22:22;;;;;;;4.00;0.90;;;16.10;1.00;;;16.10;51.82;101820.13;4994454;28;20439;-69
2022/07/16 21:24:51;;;;;;;3.00;1.00;;;16.00;1.00;;;16.07;51.61;101824.09;4988923;28;21105;-70
2022/07/16 21:27:20;;;;;;;1.60;0.77;;;16.00;1.00;;;16.06;51.82;101822.44;4986692;28;20839;-69
2022/07/16 21:29:50;;;;;;;3.10;1.63;;;16.00;1.00;;;15.96;52.22;101824.81;4998484;28;20409;-70
2022/07/16 21:32:19;;;;;;;4.03;1.93;;;15.90;1.00;;;15.96;52.17;101824.81;4995115;28;20498;-68
2022/07/16 21:34:56;;;;;;;1.63;0.90;;;15.80;1.00;;;15.92;52.17;101831.75;4991660;28;20483;-70
2022/07/16 21:37:26;;;;;;;2.27;1.33;;;15.80;1.00;;;15.87;52.54;101837.00;4990689;28;20445;-71
2022/07/16 21:39:55;;;;;;;1.70;1.30;;;15.80;1.00;;;15.80;52.61;101840.78;4998303;28;20429;-70
2022/07/16 21:42:36;;;;;;;2.53;0.97;;;15.70;1.00;;;15.79;52.61;101850.88;4997972;28;20424;-70
2022/07/16 21:45:11;;;;;;;3.77;1.40;;;15.70;1.00;;;15.72;53.07;101857.41;4991066;28;20427;-72
2022/07/16 21:47:41;;;;;;;1.67;1.00;;;15.60;1.00;;;15.63;53.31;101848.59;4988302;28;20976;-68
2022/07/16 21:50:11;;;;;;;2.30;1.20;;;15.60;1.00;;;15.64;53.17;101855.72;4994618;28;20447;-72
2022/07/16 21:52:40;;;;;;;2.13;1.03;;;15.50;1.00;;;15.50;53.74;101865.78;4991119;28;20852;-70
2022/07/16 21:55:10;;;;;;;6.50;1.37;;;15.50;1.00;;;15.60;53.58;101865.38;4990557;28;20505;-70
2022/07/16 21:57:39;;;;;;;2.90;1.43;;;15.50;1.00;;;15.49;53.86;101860.56;4994238;28;20434;-72
2022/07/16 22:00:17;;;;;;;4.73;1.30;;;15.40;1.00;;;15.39;53.91;101858.25;4994326;28;20427;-70
2022/07/16 22:02:46;;;;;;;3.07;1.20;;;15.30;1.00;;;15.41;54.17;101860.75;4991545;28;20429;-70
2022/07/16 22:05:17;;;;;;;2.60;1.37;;;15.30;1.00;;;15.37;54.33;101870.41;4999515;28;20470;-70
2022/07/16 22:07:46;;;;;;;6.53;1.90;;;15.30;1.00;;;15.32;54.51;101872.94;4995545;28;20445;-69
2022/07/16 22:10:15;;;;;;;3.30;1.10;;;15.20;1.00;;;15.31;54.52;101876.69;4993863;28;20446;-71
2022/07/16 22:12:46;;;;;;;3.27;1.70;;;15.20;1.00;;;15.21;54.63;101880.69;4991484;28;20832;-70
2022/07/16 22:15:16;;;;;;;4.40;1.47;;;15.20;1.00;;;15.23;54.92;101869.56;4994275;28;20469;-70
2022/07/16 22:17:45;;;;;;;2.07;1.30;;;15.20;1.00;;;15.15;54.98;101877.97;4989493;28;20441;-71
2022/07/16 22:23:02;;;;;;;3.13;1.77;;;15.00;1.00;;;15.07;55.32;101884.44;4997595;28;20458;-70
2022/07/16 22:25:31;;;;;;;5.13;1.07;;;15.00;1.00;;;14.90;55.80;101885.06;4992980;28;20430;-70
2022/07/16 22:28:00;;;;;;;3.30;1.60;;;14.90;1.00;;;14.82;56.31;101880.63;4994692;28;20521;-70
2022/07/16 22:30:29;;;;;;;6.40;1.23;;;14.80;1.00;;;14.83;56.18;101885.03;4995046;28;20457;-71
2022/07/16 22:32:58;;;;;;;3.93;1.23;;;14.80;1.00;;;14.84;56.29;101885.88;4999099;28;20500;-70
2022/07/16 22:35:28;;;;;;;2.03;1.53;;;14.80;1.00;;;14.82;56.34;101890.69;4997473;28;20523;-70
2022/07/16 22:37:57;;;;;;;5.23;1.53;;;14.80;1.00;;;14.85;56.25;101882.09;4995194;28;20441;-67
2022/07/16 22:40:26;;;;;;;7.23;1.20;;;14.70;1.00;;;14.72;56.48;101891.06;4998023;28;20412;-70
2022/07/16 22:42:55;;;;;;;5.50;1.57;;;14.70;1.00;;;14.70;56.87;101898.63;4996982;28;20462;-69
2022/07/16 22:45:24;;;;;;;2.20;1.33;;;14.60;1.00;;;14.67;56.90;101896.28;4998357;28;20446;-68
2022/07/16 22:47:53;;;;;;;4.90;1.60;;;14.60;1.00;;;14.54;57.33;101896.25;5049178;22;20490;-75
2022/07/16 22:50:22;;;;;;;1.87;1.00;;;14.60;1.00;;;14.50;57.56;101900.44;5071363;28;20417;-74
2022/07/16 22:52:53;;;;;;;4.17;1.50;;;14.50;1.00;;;14.59;57.27;101900.06;5072460;28;20458;-74
2022/07/16 22:55:22;;;;;;;6.20;1.30;;;14.50;1.00;;;14.47;57.50;101900.84;5074830;28;20428;-75
2022/07/16 22:57:51;;;;;;;3.87;1.20;;;14.50;1.00;;;14.37;58.09;101901.22;5072150;28;20430;-74
2022/07/16 23:00:20;;;;;;;3.60;2.03;;;14.40;1.00;;;14.32;58.15;101903.69;5070908;28;20451;-74
2022/07/16 23:02:49;;;;;;;4.30;1.30;;;14.30;1.00;;;14.29;58.38;101904.91;5072162;28;20476;-74
2022/07/16 23:05:20;;;;;;;3.03;1.70;;;14.20;1.00;;;14.29;58.16;101904.06;5072045;28;20912;-74
2022/07/16 23:07:52;;;;;;;2.03;1.10;;;14.30;1.00;;;14.22;58.27;101909.50;5071801;28;20437;-74
2022/07/16 23:10:21;;;;;;;4.77;1.50;;;14.20;1.00;;;14.14;58.79;101917.81;5061584;28;20893;-75
2022/07/16 23:12:50;;;;;;;4.03;1.53;;;14.10;1.00;;;14.07;58.71;101916.97;5075067;28;20549;-75
2022/07/16 23:15:20;;;;;;;3.43;1.37;;;14.10;1.00;;;13.81;59.62;101912.19;5070610;28;20987;-74
2022/07/16 23:17:49;;;;;;;4.50;1.60;;;14.00;1.00;;;13.88;59.65;101914.94;5065240;28;20426;-74
2022/07/16 23:20:18;;;;;;;3.87;1.60;;;13.90;1.00;;;13.86;59.99;101919.75;5072028;28;20429;-76
2022/07/16 23:22:48;;;;;;;3.13;1.67;;;13.90;1.00;;;13.90;59.57;101927.31;5071720;28;20449;-73
2022/07/16 23:25:18;;;;;;;2.73;1.30;;;13.90;1.00;;;13.77;59.96;101923.66;5071658;28;20919;-76
2022/07/16 23:27:48;;;;;;;3.73;1.20;;;13.80;1.00;;;13.81;59.88;101922.22;5071409;28;20453;-74
2022/07/16 23:30:17;;;;;;;4.07;1.73;;;13.80;1.00;;;13.83;59.84;101922.88;5051826;28;20408;-76
2022/07/16 23:32:49;;;;;;;2.97;1.87;;;13.80;1.00;;;13.79;60.04;101924.31;5063578;28;20478;-76
2022/07/16 23:35:19;;;;;;;4.83;1.37;;;13.80;1.00;;;13.72;60.28;101935.13;5065419;28;20822;-75
2022/07/16 23:37:48;;;;;;;6.87;1.57;;;13.70;1.00;;;13.76;60.17;101935.56;5071474;28;20804;-75
2022/07/16 23:40:18;;;;;;;2.23;1.20;;;13.70;1.00;;;13.69;60.28;101934.69;5071882;28;20433;-75
2022/07/16 23:42:47;;;;;;;10.87;2.20;;;13.60;1.00;;;13.72;59.96;101940.56;5071313;28;20450;-74
2022/07/16 23:45:16;;;;;;;2.73;1.20;;;13.70;1.00;;;13.71;60.31;101932.59;5071663;28;20553;-75
2022/07/16 23:47:46;;;;;;;1.70;1.10;;;13.70;1.00;;;13.83;59.77;101936.47;5071370;28;20482;-74
2022/07/16 23:50:15;;;;;;;2.53;0.90;;;13.70;1.00;;;13.76;60.17;101935.56;5071895;28;20510;-74
2022/07/16 23:52:45;;;;;;;2.07;1.40;;;13.70;1.00;;;13.70;60.35;101942.63;5071839;28;20482;-73
2022/07/16 23:55:14;;;;;;;8.10;2.17;;;13.70;1.00;;;13.60;60.65;101941.31;5070884;28;20673;-76
2022/07/16 23:57:52;;;;;;;1.60;1.10;;;13.60;1.00;;;13.57;60.74;101941.69;5071524;28;20405;-75
